METAR Data
IDs: Format: Raw Decoded Include TAF

Data at: 0645 UTC 18 Sep 2021

KPHL 180632Z 02003KT 8SM BKN009 21/20 A3009 RMK AO2 T02110200 $
KPHL 180554Z 03004KT 10SM FEW012 FEW025 21/20 A3009 RMK AO2 SLP188 T02110200 10233 20206 58013 $
KPHL 180454Z 03004KT 10SM FEW012 SCT025 21/19 A3010 RMK AO2 SLP193 T02110194 402500211 $
KPHL 180431Z 01003KT 10SM SCT012 SCT025 22/20 A3011 RMK AO2 T02170200 $
KPHL 180419Z 01003KT 10SM BKN013 BKN023 BKN070 22/20 A3011 RMK AO2 T02170200 $
KPHL 180401Z COR 02004KT 10SM SCT016 SCT023 BKN070 22/20 A3011 RMK AO2 T02170200 $
KPHL 180354Z 36004KT 10SM BKN016 BKN023 BKN070 22/20 A3011 RMK AO2 SLP196 T02170200 $

KPHL 180520Z 1806/1912 36003KT P6SM SCT015
  FM180700 35003KT 5SM BR OVC015
  FM180900 35003KT 3SM BR OVC008
  FM181200 35005KT P6SM BKN015
  FM181400 33005KT P6SM BKN050
  FM181900 30007KT P6SM SCT200
  FM190100 32007KT P6SM SKC


KPNE 180638Z 03004KT 10SM BKN006 20/19 A3010 RMK AO2 T02000194
KPNE 180629Z 03004KT 10SM SCT007 21/19 A3010 RMK AO2 T02060194
KPNE 180554Z 04004KT 10SM CLR 20/19 A3010 RMK AO2 SLP193 T02000189 10228 20200 58012
KPNE 180454Z 01006KT 10SM FEW016 21/20 A3012 RMK AO2 SLP196 T02110200 402500206
KPNE 180354Z 36005KT 10SM SCT012 21/20 A3013 RMK AO2 SLP202 T02110200

KPNE 180520Z 1806/1906 35003KT P6SM SCT015
  FM180700 35003KT 5SM BR BKN015
  FM180900 35003KT 3SM BR OVC008
  FM181300 35005KT P6SM BKN050
  FM181900 32007KT P6SM SCT200
  FM190100 33005KT P6SM SKC